createdAt,value
2023-02-27T00:22:36.014Z,30.98
2023-02-27T00:23:35.981Z,30.31
2023-02-27T00:24:36.020Z,30.92
2023-02-27T00:25:36.030Z,28.12
2023-02-27T00:26:36.085Z,35.27
2023-02-27T00:27:36.125Z,29.83
2023-02-27T00:28:36.170Z,28.12
2023-02-27T00:29:36.267Z,29.58
2023-02-27T00:30:36.252Z,29.75
2023-02-27T00:31:36.359Z,28.68
2023-02-27T00:32:36.363Z,30.68
2023-02-27T00:33:36.325Z,28.77
2023-02-27T00:34:36.395Z,31.52
2023-02-27T00:35:36.463Z,29.56
2023-02-27T00:36:36.497Z,34.75
2023-02-27T00:37:36.586Z,30.98
2023-02-27T00:38:36.585Z,32.40
2023-02-27T00:39:37.404Z,33.28
2023-02-27T00:40:36.692Z,32.09
2023-02-27T00:41:36.725Z,28.75
2023-02-27T00:42:36.911Z,31.31
2023-02-27T00:43:36.780Z,27.58
2023-02-27T00:44:36.845Z,28.54
2023-02-27T00:45:36.916Z,33.73
2023-02-27T00:46:37.076Z,31.63
2023-02-27T00:47:36.984Z,27.89
2023-02-27T00:48:37.112Z,34.00
2023-02-27T00:49:37.066Z,30.72
2023-02-27T00:50:37.097Z,30.84
2023-02-27T00:51:37.128Z,31.07
2023-02-27T00:52:37.187Z,29.90
2023-02-27T00:53:37.231Z,28.62
2023-02-27T00:54:37.291Z,29.80
2023-02-27T00:55:37.403Z,31.61
2023-02-27T00:56:37.426Z,26.73
2023-02-27T00:57:37.531Z,30.69
2023-02-27T00:58:37.570Z,34.28
2023-02-27T00:59:37.637Z,29.79
2023-02-27T01:00:37.737Z,31.58
2023-02-27T01:01:37.775Z,28.50
2023-02-27T01:02:37.873Z,29.83
2023-02-27T01:03:37.948Z,27.70
2023-02-27T01:04:38.017Z,29.88
2023-02-27T01:05:38.099Z,27.10
2023-02-27T01:06:38.189Z,27.75
2023-02-27T01:07:38.197Z,29.53
2023-02-27T01:08:38.238Z,29.90
2023-02-27T01:09:38.268Z,30.80
2023-02-27T01:10:38.335Z,29.56
2023-02-27T01:11:38.391Z,30.54
2023-02-27T01:12:38.462Z,28.41
2023-02-27T01:13:38.536Z,33.54
2023-02-27T01:14:38.643Z,30.05
2023-02-27T01:15:38.703Z,33.63
2023-02-27T01:16:38.810Z,32.98
2023-02-27T01:17:38.873Z,27.91
2023-02-27T01:18:39.047Z,31.62
2023-02-27T01:19:39.055Z,25.00
2023-02-27T01:20:39.143Z,31.61
2023-02-27T01:21:39.225Z,27.37
2023-02-27T01:22:39.320Z,31.53
2023-02-27T01:23:39.394Z,33.52
2023-02-27T01:24:40.422Z,30.36
2023-02-27T01:25:39.546Z,29.04
2023-02-27T01:26:39.633Z,29.43
2023-02-27T01:27:39.727Z,29.50
2023-02-27T01:28:39.930Z,32.44
2023-02-27T01:29:39.885Z,33.91
2023-02-27T03:13:45.961Z,29.12
2023-02-27T03:14:46.059Z,33.24
2023-02-27T03:15:46.070Z,34.47
2023-02-27T03:16:46.098Z,33.02
2023-02-27T03:17:46.157Z,28.32
2023-02-27T03:18:46.228Z,31.48
2023-02-27T03:19:46.264Z,32.32
2023-02-27T03:20:46.314Z,31.62
2023-02-27T03:21:46.363Z,32.34
2023-02-27T03:22:46.415Z,32.35
2023-02-27T03:23:46.473Z,30.44
2023-02-27T03:24:46.508Z,28.67
2023-02-27T03:25:46.555Z,31.64
2023-02-27T03:26:46.605Z,32.12
2023-02-27T03:27:46.662Z,34.79
2023-02-27T03:28:46.707Z,30.37
2023-02-27T03:29:46.757Z,32.92
2023-02-27T03:30:46.895Z,34.76
2023-02-27T03:31:47.056Z,33.49
2023-02-27T03:32:46.907Z,30.46
2023-02-27T03:33:46.969Z,32.10
2023-02-27T03:34:47.020Z,33.09
2023-02-27T03:35:47.056Z,31.31
2023-02-27T03:36:47.111Z,32.00
2023-02-27T03:37:47.149Z,32.29
2023-02-27T03:38:47.195Z,31.30
2023-02-27T03:39:47.308Z,31.45
2023-02-27T03:40:47.293Z,32.88
2023-02-27T03:41:47.342Z,30.40
2023-02-27T03:42:47.381Z,33.03
2023-02-27T03:43:47.422Z,32.24
2023-02-27T03:44:47.466Z,30.03
2023-02-27T03:45:47.526Z,30.79
2023-02-27T03:46:47.562Z,26.37
2023-02-27T03:47:47.654Z,31.18
2023-02-27T03:48:47.724Z,34.07
2023-02-27T03:49:48.456Z,35.64
2023-02-27T03:50:47.768Z,31.78
2023-02-27T03:51:48.462Z,29.30
2023-02-27T03:52:47.842Z,33.07
2023-02-27T03:53:47.886Z,35.37
2023-02-27T03:54:47.933Z,28.25
2023-02-27T03:55:47.986Z,30.08
2023-02-27T03:56:48.032Z,27.29
2023-02-27T03:57:48.086Z,34.89
2023-02-27T03:58:48.131Z,32.64
2023-02-27T03:59:48.190Z,30.19
2023-02-27T04:00:48.245Z,27.54
2023-02-27T04:01:48.283Z,32.43
2023-02-27T04:02:48.343Z,26.86
2023-02-27T04:03:48.370Z,29.66
2023-02-27T04:04:48.418Z,32.50
2023-02-27T04:05:48.467Z,33.10
2023-02-27T04:06:48.500Z,32.63
2023-02-27T04:07:48.542Z,30.12
2023-02-27T04:08:48.607Z,31.45
2023-02-27T04:09:48.639Z,35.86
2023-02-27T04:10:48.787Z,35.90
2023-02-27T04:11:48.743Z,29.68
2023-02-27T04:12:48.784Z,32.26
2023-02-27T04:13:48.828Z,32.10
2023-02-27T04:14:48.884Z,29.39
2023-02-27T04:15:48.947Z,33.24
2023-02-27T04:16:48.985Z,33.62
2023-02-27T04:17:49.019Z,31.27
2023-02-27T04:18:49.056Z,28.55
2023-02-27T04:19:49.104Z,33.10
2023-02-27T04:20:49.144Z,28.17
2023-02-27T04:21:49.203Z,31.62
2023-02-27T04:22:49.243Z,32.49
2023-02-27T04:23:49.301Z,30.32
2023-02-27T07:07:34.708Z,51.87
2023-02-27T07:07:58.613Z,51.98
2023-02-27T07:09:02.403Z,52.00
2023-02-27T07:09:56.965Z,52.34
2023-02-27T07:10:55.970Z,52.32
2023-02-27T07:11:55.982Z,53.04
2023-02-27T07:12:55.985Z,54.05
2023-02-27T07:13:56.007Z,57.40
2023-02-27T07:14:56.010Z,54.83
2023-02-27T07:15:56.052Z,55.59
2023-02-27T07:16:56.014Z,53.99
2023-02-27T07:17:56.526Z,50.39
2023-02-27T07:18:56.027Z,53.09
2023-02-27T07:19:56.032Z,57.23
2023-02-27T07:20:56.026Z,58.99
2023-02-27T07:21:56.043Z,52.32
2023-02-27T07:22:56.048Z,54.49
2023-02-27T07:23:56.067Z,55.42
2023-02-27T07:24:56.065Z,54.46
2023-02-27T07:25:56.060Z,52.40
2023-02-27T07:26:56.060Z,50.42
2023-02-27T07:27:56.071Z,52.92
2023-02-27T07:28:56.060Z,55.98
2023-02-27T07:29:56.075Z,51.41
2023-02-27T07:30:56.117Z,55.23
2023-02-27T07:31:56.142Z,57.43
2023-02-27T07:32:56.189Z,51.53
2023-02-27T07:33:56.207Z,52.90
2023-02-27T07:34:56.233Z,53.99
2023-02-27T07:35:56.363Z,55.78
2023-02-27T07:36:56.293Z,50.94
2023-02-27T07:37:56.319Z,50.95
2023-02-27T07:38:56.358Z,51.32
2023-02-27T07:39:56.393Z,57.84
2023-02-27T07:40:56.441Z,54.17
2023-02-27T07:41:56.568Z,55.11
2023-02-27T07:42:56.489Z,52.95
2023-02-27T07:43:56.529Z,57.22
2023-02-27T07:44:56.561Z,53.09
2023-02-27T07:45:56.599Z,56.23
2023-02-27T07:47:56.675Z,51.51
2023-02-27T07:48:56.701Z,58.67
2023-02-27T07:49:56.741Z,52.26
2023-02-27T07:50:56.758Z,50.14
2023-02-27T07:51:56.866Z,55.99
2023-02-27T08:01:57.081Z,58.34
2023-02-27T10:15:01.380Z,249.47
2023-02-27T12:05:05.956Z,178.28
2023-02-27T12:06:06.057Z,178.10
2023-02-27T12:07:06.106Z,176.47
2023-02-27T12:08:06.170Z,178.09
2023-02-27T12:09:06.234Z,176.21
2023-02-27T12:10:06.309Z,176.33
2023-02-27T12:12:06.432Z,174.35
2023-02-27T12:34:07.885Z,168.78
2023-02-27T12:35:07.944Z,169.65
2023-02-27T12:36:08.012Z,169.28
2023-02-27T12:37:08.058Z,167.17
2023-02-27T12:38:08.091Z,168.57
2023-02-27T12:39:08.137Z,168.28
2023-02-27T12:40:08.186Z,169.09
2023-02-27T12:54:08.524Z,163.23
2023-02-27T12:55:08.530Z,163.99
2023-02-27T12:56:08.555Z,161.28
2023-02-27T12:57:08.599Z,163.53
2023-02-27T12:58:08.658Z,162.99
2023-02-27T12:59:08.703Z,164.48
2023-02-27T13:00:08.716Z,162.99
2023-02-27T13:01:08.959Z,162.36
2023-02-27T13:02:08.740Z,162.21
2023-02-27T13:03:08.853Z,162.09
2023-02-27T13:04:08.824Z,163.47
2023-02-27T13:05:08.837Z,161.68
2023-02-27T13:06:08.840Z,160.95
2023-02-27T13:07:09.158Z,160.72
2023-02-27T13:08:08.908Z,158.76
2023-02-27T13:09:08.985Z,160.07
2023-02-27T13:10:08.924Z,158.90
2023-02-27T13:11:08.960Z,158.84
2023-02-27T13:12:08.986Z,158.42
2023-02-27T13:13:09.785Z,158.78
2023-02-27T13:14:09.011Z,158.06
2023-02-27T13:15:09.158Z,158.02
2023-02-27T13:16:09.083Z,157.35
2023-02-27T13:17:09.083Z,157.44
2023-02-27T13:18:09.235Z,157.15
2023-02-27T13:19:09.134Z,157.41
2023-02-27T13:20:09.161Z,158.26
2023-02-27T13:21:09.169Z,155.22
2023-02-27T13:22:09.204Z,156.21
2023-02-27T13:23:09.318Z,156.32
2023-02-27T17:36:15.943Z,115.37
2023-02-27T17:37:15.992Z,112.51
2023-02-27T17:38:16.038Z,112.77
2023-02-27T17:39:16.088Z,110.23
2023-02-27T17:40:16.206Z,111.00
2023-02-27T17:41:16.204Z,112.71
2023-02-27T17:42:16.257Z,113.03
2023-02-27T17:44:16.364Z,111.43
2023-02-27T17:45:16.420Z,110.65
2023-02-27T17:46:16.486Z,112.84
2023-02-27T17:47:16.523Z,112.07
2023-02-27T17:48:16.578Z,110.71
2023-02-27T17:49:16.638Z,111.43
2023-02-27T17:50:16.697Z,109.50
2023-02-27T17:51:16.730Z,110.57
2023-02-27T17:52:16.874Z,110.36
2023-02-27T17:53:16.840Z,108.06
2023-02-27T17:54:16.886Z,108.55
2023-02-27T17:55:16.944Z,111.72
2023-02-27T17:56:17.010Z,108.33
2023-02-27T17:57:17.036Z,109.05
2023-02-27T17:58:17.101Z,109.19
2023-02-27T17:59:17.159Z,109.72
2023-02-27T18:00:17.191Z,107.44
2023-02-27T20:20:26.302Z,84.00
2023-02-27T20:25:26.059Z,84.31
2023-02-27T20:26:26.427Z,82.77
2023-02-27T20:27:26.124Z,82.47
2023-02-27T20:28:26.211Z,83.01
2023-02-27T20:29:26.282Z,81.68
2023-02-27T20:30:26.336Z,82.62
2023-02-27T20:31:27.123Z,82.78
2023-02-27T20:32:26.595Z,83.19
2023-02-27T20:33:26.594Z,81.49
2023-02-27T20:34:26.692Z,80.25
2023-02-27T20:35:26.721Z,82.29
2023-02-27T20:42:27.212Z,78.81
2023-02-27T20:43:27.265Z,82.42
2023-02-27T20:44:27.346Z,78.93
2023-02-27T20:45:27.420Z,78.87
2023-02-27T20:46:27.510Z,79.24
2023-02-27T20:47:27.560Z,78.61
2023-02-27T20:48:27.632Z,80.77
2023-02-27T20:49:27.709Z,78.68
2023-02-27T20:50:27.779Z,77.77
2023-02-27T20:51:28.216Z,78.44
2023-02-27T20:52:27.937Z,78.72
2023-02-27T20:53:28.015Z,78.04
2023-02-27T20:54:28.093Z,78.46
2023-02-27T20:55:28.163Z,77.56
2023-02-27T20:56:28.314Z,76.72
2023-02-27T20:57:28.313Z,77.27
2023-02-27T20:58:28.387Z,76.96
2023-02-27T20:59:28.459Z,74.25
2023-02-27T21:00:28.530Z,77.09
2023-02-27T21:01:29.004Z,76.96
2023-02-27T21:02:28.671Z,76.72
2023-02-27T21:03:31.214Z,76.82
2023-02-27T21:05:28.771Z,76.88
2023-02-27T21:06:28.788Z,77.41
2023-02-27T21:07:28.811Z,76.91
2023-02-27T21:08:28.798Z,75.69
2023-02-27T21:10:28.807Z,76.14
2023-02-27T21:11:29.215Z,73.23
2023-02-27T21:12:28.896Z,75.28
2023-02-27T21:13:28.948Z,73.23
2023-02-27T21:14:29.011Z,76.38
2023-02-27T22:45:36.030Z,67.12
2023-02-27T22:46:36.958Z,67.48
2023-02-27T22:47:36.120Z,63.33
2023-02-27T22:48:36.212Z,63.92
2023-02-27T22:49:36.325Z,66.07
2023-02-27T22:50:36.353Z,64.96
2023-02-27T22:51:36.438Z,66.91
